Terminal Aerodrome Forecast
Issued by NWS Oklahoma City, OK

Home | Current Version | Previous Version | Text Only | Print | Product List | Glossary On
Versions: 1 2 3 4 5 6 7 8 9 10 11 12 13 14 15 16 17 18 19 20 21 22 23 24 25 26 27 28 29 30 31 32 33
000
FTUS44 KOUN 191726
TAFOUN
TAF
KOUN 191726Z 1918/2018 35007KT P6SM BKN070
     FM191900 33013KT P6SM VCTS SCT040 BKN100CB
      TEMPO 1919/1922 4SM -TSRA OVC030CB
     FM192200 33020G28KT P6SM BKN050
     FM200200 33009KT P6SM FEW200
     FM201500 34010KT P6SM BKN070=

USA.gov is the U.S. government's official web portal to all federal, state and local government web resources and services.